Time;durP1;ratioP1;P1;durP2;ratioP2;P2;SDS_P1;SDS_P2;PMS_P1;PMS_P2;Temp;Humidity;BMP_temperature;BMP_pressure;BME280_temperature;BME280_humidity;BME280_pressure;Samples;Min_cycle;Max_cycle;Signal;HPM_P1;HPM_P2
2023/12/07 00:00:51;;;;;;;10.87;10.57;;;;;;;-141.02;100.00;51713.00;5091959;28;20308;-77
2023/12/07 00:03:21;;;;;;;11.37;11.07;;;;;;;-141.02;100.00;51229.94;5091644;28;20234;-76
2023/12/07 00:05:48;;;;;;;11.40;11.10;;;;;;;-141.02;100.00;51278.03;5092025;28;20221;-76
2023/12/07 00:08:15;;;;;;;10.63;10.33;;;;;;;-141.02;100.00;51639.88;5091936;28;20201;-76
2023/12/07 00:10:42;;;;;;;10.20;9.90;;;;;;;-141.02;100.00;52406.03;5091732;28;20205;-76
2023/12/07 00:13:49;;;;;;;10.53;10.23;;;;;;;-141.02;100.00;52975.94;5091929;28;20324;-76
2023/12/07 00:16:16;;;;;;;10.43;10.13;;;;;;;-141.02;100.00;53314.84;5090363;28;20659;-76
2023/12/07 00:18:44;;;;;;;8.90;8.70;;;;;;;-141.02;100.00;52881.56;5093157;28;20197;-76
2023/12/07 00:21:11;;;;;;;9.53;9.23;;;;;;;-141.02;100.00;52481.09;5095279;28;20232;-76
2023/12/07 00:23:38;;;;;;;9.93;9.63;;;;;;;-141.02;100.00;52024.84;5095358;28;20200;-77
2023/12/07 00:26:06;;;;;;;10.40;10.10;;;;;;;-141.02;100.00;51832.34;5095318;28;20233;-76
2023/12/07 00:28:33;;;;;;;10.90;10.60;;;;;;;-141.02;100.00;51772.69;5095261;28;20281;-78
2023/12/07 00:31:00;;;;;;;11.10;10.80;;;;;;;-141.02;100.00;52371.38;5095264;28;20285;-76
2023/12/07 00:33:27;;;;;;;11.60;11.30;;;;;;;-141.02;100.00;51714.94;5095183;28;20642;-77
2023/12/07 00:35:58;;;;;;;11.10;10.80;;;;;;;-141.02;100.00;51597.53;5095450;28;20285;-77
2023/12/07 00:38:27;;;;;;;11.10;10.80;;;;;;;-141.02;100.00;52273.19;5095102;28;20202;-77
2023/12/07 00:40:54;;;;;;;11.20;10.90;;;;;;;-141.02;100.00;51597.53;5095215;28;20221;-76
2023/12/07 00:43:21;;;;;;;10.20;9.90;;;;;;;-141.02;100.00;51772.69;5094989;28;20281;-76
2023/12/07 00:45:48;;;;;;;10.50;10.20;;;;;;;-141.02;100.00;52664.00;5095187;28;20248;-76
2023/12/07 00:48:15;;;;;;;10.70;10.40;;;;;;;-141.02;100.00;53347.56;5095229;28;20288;-76
2023/12/07 00:50:42;;;;;;;10.87;10.57;;;;;;;-141.02;100.00;53726.97;5095142;28;20634;-77
2023/12/07 00:53:11;;;;;;;10.80;10.50;;;;;;;-141.02;100.00;53830.97;5095145;28;20194;-76
2023/12/07 00:55:37;;;;;;;10.50;10.20;;;;;;;-141.02;100.00;53927.28;5095093;28;20228;-76
2023/12/07 00:58:04;;;;;;;10.90;10.60;;;;;;;-141.02;100.00;52810.34;5094949;28;20193;-76
2023/12/07 01:00:31;;;;;;;11.10;10.80;;;;;;;-141.02;100.00;52714.06;5094916;28;20225;-76
2023/12/07 01:02:59;;;;;;;10.70;10.40;;;;;;;-141.02;100.00;52825.75;5094648;28;20364;-76
2023/12/07 01:05:32;;;;;;;11.43;11.13;;;;;;;-141.02;100.00;52319.38;5094814;28;20194;-77
2023/12/07 01:08:00;;;;;;;11.50;11.20;;;;;;;-141.02;100.00;51697.63;5094822;28;20201;-76
2023/12/07 01:10:28;;;;;;;12.40;12.00;;;;;;;-141.02;100.00;50977.81;5094438;28;20204;-76
2023/12/07 01:12:55;;;;;;;12.70;12.30;;;;;;;-141.02;100.00;50766.16;5094740;28;20301;-76
2023/12/07 01:15:22;;;;;;;12.50;12.10;;;;;;;-141.02;100.00;51202.97;5094650;28;20194;-77
2023/12/07 01:17:49;;;;;;;11.83;11.43;;;;;;;-141.02;100.00;51693.78;5094313;28;20290;-75
2023/12/07 01:20:17;;;;;;;12.67;12.27;;;;;;;-141.02;100.00;52005.59;5094463;28;20630;-75
2023/12/07 01:22:46;;;;;;;12.57;12.17;;;;;;;-141.02;100.00;52313.59;5094547;28;20200;-75
2023/12/07 01:25:19;;;;;;;12.93;12.53;;;;;;;-141.02;100.00;52071.06;5094483;28;20205;-76
2023/12/07 01:27:48;;;;;;;13.07;12.67;;;;;;;-141.02;100.00;51784.22;5094516;28;20189;-75
2023/12/07 01:30:15;;;;;;;12.43;12.03;;;;;;;-141.02;100.00;52261.63;5093575;28;20226;-76
2023/12/07 01:32:42;;;;;;;11.40;11.10;;;;;;;-141.02;100.00;53449.63;5094309;28;20198;-76
2023/12/07 01:35:09;;;;;;;10.00;9.70;;;;;;;-141.02;100.00;53445.78;5093945;28;20198;-76
2023/12/07 01:37:36;;;;;;;10.13;9.83;;;;;;;-141.02;100.00;53126.13;5094200;28;20284;-75
2023/12/07 01:40:10;;;;;;;9.50;9.20;;;;;;;-141.02;100.00;52999.03;5093909;28;20565;-75
2023/12/07 01:42:37;;;;;;;9.40;9.10;;;;;;;-141.02;100.00;52598.53;5094091;28;20213;-76
2023/12/07 01:45:06;;;;;;;10.00;9.70;;;;;;;-141.02;100.00;52221.19;5093887;28;20656;-76
2023/12/07 01:47:36;;;;;;;10.10;9.80;;;;;;;-141.02;100.00;52024.84;5094129;28;20255;-76
2023/12/07 01:50:05;;;;;;;10.60;10.30;;;;;;;-141.02;100.00;51616.78;5094013;28;20243;-76
2023/12/07 01:52:33;;;;;;;11.33;11.03;;;;;;;-141.02;100.00;51228.00;5093695;28;20234;-76
2023/12/07 01:55:00;;;;;;;11.10;10.80;;;;;;;-141.02;100.00;51666.81;5093878;28;20222;-76
2023/12/07 01:57:28;;;;;;;11.40;11.10;;;;;;;-141.02;100.00;51555.19;5093540;28;20251;-75
2023/12/07 01:59:58;;;;;;;11.97;11.60;;;;;;;-141.02;100.00;50927.78;5093450;28;20255;-76
2023/12/07 02:02:27;;;;;;;12.50;12.10;;;;;;;-141.02;100.00;50850.81;5093072;28;20328;-75
2023/12/07 02:04:54;;;;;;;13.43;13.03;;;;;;;-141.02;100.00;50516.00;5093475;28;20376;-76
2023/12/07 02:07:22;;;;;;;13.27;12.87;;;;;;;-141.02;100.00;50308.19;5093404;28;20233;-76
2023/12/07 02:09:50;;;;;;;13.17;12.77;;;;;;;-141.02;100.00;50061.94;5093353;28;20201;-76
2023/12/07 02:12:18;;;;;;;13.20;12.80;;;;;;;-141.02;100.00;50550.63;5093554;28;20289;-76
2023/12/07 02:14:46;;;;;;;14.07;13.67;;;;;;;-141.02;100.00;50723.81;5093146;28;20208;-77
2023/12/07 02:17:19;;;;;;;13.90;13.50;;;;;;;-141.02;100.00;50596.81;5093185;28;20240;-75
2023/12/07 02:19:58;;;;;;;13.67;13.27;;;;;;;-141.02;100.00;51462.81;5094110;28;20271;-76
2023/12/07 02:22:30;;;;;;;13.90;13.50;;;;;;;-141.02;100.00;52028.69;5093350;28;20217;-76
2023/12/07 02:25:08;;;;;;;11.53;11.23;;;;;;;-141.02;100.00;52221.19;5093469;28;20186;-75
2023/12/07 02:27:38;;;;;;;13.07;12.67;;;;;;;-141.02;100.00;52810.34;5092960;28;20202;-76
2023/12/07 02:30:08;;;;;;;11.90;11.60;;;;;;;-141.02;100.00;53574.81;5093587;28;20273;-76
2023/12/07 02:32:36;;;;;;;11.10;10.80;;;;;;;-141.02;100.00;54364.50;5093568;28;20281;-75
2023/12/07 02:35:05;;;;;;;10.47;10.17;;;;;;;-141.02;100.00;55033.00;5093141;28;20647;-76
2023/12/07 02:37:37;;;;;;;10.00;9.70;;;;;;;-141.02;100.00;55772.94;5092845;28;20716;-76
2023/12/07 02:40:10;;;;;;;10.30;10.00;;;;;;;-141.02;100.00;55772.94;5092873;28;20231;-76
2023/12/07 02:42:39;;;;;;;10.70;10.40;;;;;;;-141.02;100.00;56513.03;5091801;28;20214;-76
2023/12/07 02:45:08;;;;;;;10.50;10.20;;;;;;;-141.02;100.00;56019.63;5093053;28;20582;-76
2023/12/07 02:47:36;;;;;;;10.10;9.80;;;;;;;-141.02;100.00;55772.94;5092973;28;20281;-76
2023/12/07 02:50:03;;;;;;;9.80;9.50;;;;;;;-141.02;100.00;56019.63;5093209;28;20281;-76
2023/12/07 02:52:30;;;;;;;10.10;9.80;;;;;;;-141.02;100.00;56513.03;5092656;28;20200;-76
2023/12/07 02:54:57;;;;;;;10.13;9.83;;;;;;;-141.02;100.00;56759.78;5092780;28;20194;-76
2023/12/07 02:57:24;;;;;;;10.00;9.70;;;;;;;-141.02;100.00;57253.28;5092784;28;20197;-76
2023/12/07 02:59:52;;;;;;;10.07;9.77;;;;;;;-141.02;100.00;57253.28;5092768;28;20221;-76
2023/12/07 03:02:20;;;;;;;9.70;9.40;;;;;;;-141.02;100.00;57746.88;5092178;28;20225;-76
2023/12/07 03:04:47;;;;;;;9.90;9.60;;;;;;;-141.02;100.00;58487.41;5092478;28;20278;-76
2023/12/07 03:07:14;;;;;;;9.50;9.20;;;;;;;-141.02;100.00;58487.41;5092357;28;20271;-76
2023/12/07 03:09:41;;;;;;;9.70;9.40;;;;;;;-141.02;100.00;59228.09;5092635;28;20276;-76
2023/12/07 03:12:08;;;;;;;8.70;8.50;;;;;;;-141.02;100.00;59721.97;5092513;28;20228;-76
2023/12/07 03:14:35;;;;;;;8.00;7.80;;;;;;;-141.02;100.00;60462.94;5092499;28;20200;-76
2023/12/07 03:17:10;;;;;;;7.60;7.40;;;;;;;-141.02;100.00;60709.94;5092225;28;20280;-76
2023/12/07 03:19:39;;;;;;;7.63;7.43;;;;;;;-141.02;100.00;61204.03;5092486;28;20193;-76
2023/12/07 03:22:08;;;;;;;7.80;7.60;;;;;;;-141.02;100.00;61204.03;5092013;28;20229;-76
2023/12/07 03:24:38;;;;;;;7.70;7.50;;;;;;;-141.02;100.00;60957.00;5092181;28;20198;-77
2023/12/07 03:27:08;;;;;;;7.10;6.90;;;;;;;-141.02;100.00;60957.00;5092397;28;20276;-76
2023/12/07 03:29:37;;;;;;;6.43;6.30;;;;;;;-141.02;100.00;60462.94;5092368;28;20204;-76
2023/12/07 03:32:07;;;;;;;6.30;6.20;;;;;;;-141.02;100.00;60215.94;5092121;28;20285;-76
2023/12/07 03:34:36;;;;;;;6.30;6.20;;;;;;;-141.02;100.00;59721.97;5092084;28;20190;-76
2023/12/07 03:37:04;;;;;;;6.50;6.30;;;;;;;-141.02;100.00;59475.03;5091999;28;20201;-75
2023/12/07 03:39:32;;;;;;;5.80;5.70;;;;;;;-141.02;100.00;58981.19;5091980;28;20193;-77
2023/12/07 03:41:59;;;;;;;5.40;5.30;;;;;;;-141.02;100.00;58734.28;5091933;28;20800;-76
2023/12/07 03:44:26;;;;;;;5.37;5.27;;;;;;;-141.02;100.00;58240.56;5092176;28;20220;-76
2023/12/07 03:46:53;;;;;;;5.77;5.67;;;;;;;-141.02;100.00;57746.88;5092572;28;20203;-77
2023/12/07 03:49:20;;;;;;;5.87;5.77;;;;;;;-141.02;100.00;57500.06;5091916;28;20200;-76
2023/12/07 03:51:49;;;;;;;5.30;5.20;;;;;;;-141.02;100.00;57500.06;5092163;28;20230;-77
2023/12/07 03:54:16;;;;;;;5.50;5.40;;;;;;;-141.02;100.00;56759.78;5094693;28;20190;-77
2023/12/07 03:56:43;;;;;;;5.50;5.40;;;;;;;-141.02;100.00;56513.03;5096135;28;20204;-77
2023/12/07 03:59:10;;;;;;;5.90;5.80;;;;;;;-141.02;100.00;56266.31;5095771;28;20578;-76
2023/12/07 04:01:37;;;;;;;5.70;5.60;;;;;;;-141.02;100.00;55772.94;5095670;28;20232;-76
2023/12/07 04:04:04;;;;;;;6.00;5.90;;;;;;;-141.02;100.00;55526.28;5095638;28;20233;-77
2023/12/07 04:06:31;;;;;;;5.77;5.67;;;;;;;-141.02;100.00;54786.41;5095707;28;20236;-77
2023/12/07 04:09:00;;;;;;;6.00;5.90;;;;;;;-141.02;100.00;54437.72;5095964;28;20606;-77
2023/12/07 04:11:26;;;;;;;6.97;6.77;;;;;;;-141.02;100.00;54046.69;5095611;28;20742;-77
2023/12/07 04:13:53;;;;;;;7.20;7.00;;;;;;;-141.02;100.00;52773.75;5095931;28;20225;-77
2023/12/07 04:16:20;;;;;;;7.47;7.27;;;;;;;-141.02;100.00;52236.59;5095532;28;20277;-77
2023/12/07 04:18:47;;;;;;;7.67;7.47;;;;;;;-141.02;100.00;52217.34;5095804;28;20194;-77
2023/12/07 04:21:14;;;;;;;7.90;7.70;;;;;;;-141.02;100.00;52159.59;5095311;28;20198;-78
2023/12/07 04:23:42;;;;;;;7.40;7.20;;;;;;;-141.02;100.00;52113.41;5095731;28;20196;-77
2023/12/07 04:26:10;;;;;;;7.80;7.60;;;;;;;-141.02;100.00;52407.94;5095444;28;20197;-77
2023/12/07 04:28:37;;;;;;;7.43;7.23;;;;;;;-141.02;100.00;52423.34;5095295;28;20234;-78
2023/12/07 04:31:05;;;;;;;7.80;7.60;;;;;;;-141.02;100.00;52379.06;5095300;28;20200;-78
2023/12/07 04:33:32;;;;;;;8.10;7.90;;;;;;;-141.02;100.00;52860.41;5095148;28;20581;-78
2023/12/07 04:35:58;;;;;;;7.67;7.47;;;;;;;-141.02;100.00;52486.88;5095454;28;20194;-78
2023/12/07 04:38:25;;;;;;;8.27;8.07;;;;;;;-141.02;100.00;52633.19;5095035;28;20204;-78
2023/12/07 04:40:53;;;;;;;8.70;8.50;;;;;;;-141.02;100.00;52733.31;5095121;28;20319;-78
2023/12/07 04:43:21;;;;;;;9.27;8.97;;;;;;;-141.02;100.00;52467.63;5094910;28;20722;-78
2023/12/07 04:45:48;;;;;;;8.50;8.30;;;;;;;-141.02;100.00;51585.97;5094856;28;20204;-78
2023/12/07 04:48:15;;;;;;;8.97;8.77;;;;;;;-141.02;100.00;50906.63;5095288;28;20222;-78
2023/12/07 04:50:42;;;;;;;9.27;8.97;;;;;;;-141.02;100.00;50469.81;5094855;28;20198;-78
2023/12/07 04:53:09;;;;;;;9.50;9.20;;;;;;;-141.02;100.00;50231.25;5095264;28;20190;-77
2023/12/07 04:55:36;;;;;;;9.90;9.60;;;;;;;-141.02;100.00;49892.63;5094809;28;20288;-78
2023/12/07 04:58:03;;;;;;;9.30;9.00;;;;;;;-141.02;100.00;50531.38;5094695;28;20205;-77
2023/12/07 05:00:32;;;;;;;9.53;9.23;;;;;;;-141.02;100.00;50743.06;5095063;28;20225;-78
2023/12/07 05:02:59;;;;;;;8.97;8.77;;;;;;;-141.02;100.00;51047.09;5094383;28;20726;-77
2023/12/07 05:05:25;;;;;;;9.30;9.00;;;;;;;-141.02;100.00;51493.59;5093914;28;20197;-78
2023/12/07 05:07:52;;;;;;;9.03;8.83;;;;;;;-141.02;100.00;52044.09;5094877;28;20201;-78
2023/12/07 05:10:20;;;;;;;9.70;9.40;;;;;;;-141.02;100.00;51605.22;5094638;28;20193;-78
2023/12/07 05:12:46;;;;;;;10.10;9.80;;;;;;;-141.02;100.00;51262.63;5094452;28;20289;-78
2023/12/07 05:15:14;;;;;;;9.43;9.13;;;;;;;-141.02;100.00;51982.50;5094371;28;20194;-78
2023/12/07 05:17:42;;;;;;;9.80;9.50;;;;;;;-141.02;100.00;52117.25;5094654;28;20225;-78
2023/12/07 05:20:12;;;;;;;9.43;9.13;;;;;;;-141.02;100.00;52117.25;5094272;28;20290;-78
2023/12/07 05:22:39;;;;;;;10.57;10.27;;;;;;;-141.02;100.00;51612.94;5094476;28;20717;-78
2023/12/07 05:25:07;;;;;;;10.10;9.80;;;;;;;-141.02;100.00;51460.88;5094543;28;20319;-78
2023/12/07 05:27:34;;;;;;;9.80;9.50;;;;;;;-141.02;100.00;52105.69;5094209;28;20678;-78
2023/12/07 05:30:01;;;;;;;9.90;9.60;;;;;;;-141.02;100.00;52382.91;5094466;28;20208;-78
2023/12/07 05:32:28;;;;;;;9.80;9.50;;;;;;;-141.02;100.00;52321.31;5094081;28;20315;-78
2023/12/07 05:34:56;;;;;;;10.20;9.90;;;;;;;-141.02;100.00;51801.56;5094049;28;20193;-78
2023/12/07 05:37:23;;;;;;;9.00;8.80;;;;;;;-141.02;100.00;52109.56;5094309;28;20269;-79
2023/12/07 05:39:50;;;;;;;8.10;7.90;;;;;;;-141.02;100.00;53124.19;5093882;28;20194;-79
2023/12/07 05:42:18;;;;;;;8.07;7.87;;;;;;;-141.02;100.00;53954.22;5094131;28;20229;-79
2023/12/07 05:44:45;;;;;;;7.63;7.43;;;;;;;-141.02;100.00;55033.00;5093870;28;20189;-79
2023/12/07 05:47:12;;;;;;;7.83;7.63;;;;;;;-141.02;100.00;55772.94;5093907;28;20646;-79
2023/12/07 05:49:39;;;;;;;8.40;8.20;;;;;;;-141.02;100.00;56759.78;5093711;28;20206;-79
2023/12/07 05:52:08;;;;;;;9.87;9.57;;;;;;;-141.02;100.00;58487.41;5093993;28;20263;-77
2023/12/07 05:54:35;;;;;;;9.97;9.67;;;;;;;-141.02;100.00;59475.03;5093622;28;20198;-77
2023/12/07 05:57:02;;;;;;;8.37;8.17;;;;;;;-141.02;100.00;60709.94;5093554;28;20660;-76
2023/12/07 05:59:29;;;;;;;7.60;7.40;;;;;;;-141.02;100.00;62192.44;5093845;28;20190;-76
2023/12/07 06:01:56;;;;;;;7.97;7.77;;;;;;;-141.02;100.00;63181.16;5093694;28;20244;-77
2023/12/07 06:04:23;;;;;;;8.00;7.80;;;;;;;-141.02;100.00;64417.41;5093299;28;20308;-77
2023/12/07 06:06:50;;;;;;;8.37;8.17;;;;;;;-141.02;100.00;65406.75;5093382;28;20359;-76
2023/12/07 06:09:18;;;;;;;8.70;8.50;;;;;;;-141.02;100.00;66396.38;5093369;28;20683;-77
2023/12/07 06:11:46;;;;;;;8.80;8.60;;;;;;;-141.02;100.00;66891.31;5093706;28;20288;-76
2023/12/07 06:14:12;;;;;;;8.70;8.50;;;;;;;-141.02;100.00;66891.31;5093302;28;20237;-79
2023/12/07 06:16:39;;;;;;;8.50;8.30;;;;;;;-141.02;100.00;67386.28;5093142;28;20276;-79
2023/12/07 06:19:06;;;;;;;8.30;8.10;;;;;;;-141.02;100.00;67138.78;5093199;28;20747;-79
2023/12/07 06:21:33;;;;;;;8.60;8.40;;;;;;;-141.02;100.00;67386.28;5093416;28;20194;-79
2023/12/07 06:24:00;;;;;;;8.97;8.77;;;;;;;-141.02;100.00;67138.78;5093012;28;20232;-79
2023/12/07 06:26:28;;;;;;;9.40;9.10;;;;;;;-141.02;100.00;67386.28;5093115;28;20685;-79
2023/12/07 06:28:55;;;;;;;10.47;10.17;;;;;;;-141.02;100.00;67881.38;5093051;28;20201;-80
2023/12/07 06:31:22;;;;;;;10.20;9.90;;;;;;;-141.02;100.00;68128.91;5093242;28;20198;-79
2023/12/07 06:33:49;;;;;;;8.20;8.00;;;;;;;-141.02;100.00;68376.50;5093246;28;20220;-79
2023/12/07 06:36:20;;;;;;;8.10;7.90;;;;;;;-141.02;100.00;68871.72;5093220;28;20190;-79
2023/12/07 06:38:47;;;;;;;8.10;7.90;;;;;;;-141.02;100.00;69119.34;5093237;28;20190;-80
2023/12/07 06:41:15;;;;;;;7.97;7.77;;;;;;;-141.02;100.00;69614.66;5093973;28;20216;-79
2023/12/07 06:43:44;;;;;;;8.03;7.83;;;;;;;-141.02;100.00;69614.66;5092905;28;20306;-79
2023/12/07 06:46:12;;;;;;;8.00;7.80;;;;;;;-141.02;100.00;69862.34;5093001;28;20198;-79
2023/12/07 06:48:39;;;;;;;8.93;8.63;;;;;;;-141.02;100.00;69614.66;5092671;28;20205;-79
2023/12/07 06:51:06;;;;;;;8.50;8.30;;;;;;;-141.02;100.00;69862.34;5092974;28;20288;-79
2023/12/07 06:53:33;;;;;;;8.30;8.10;;;;;;;-141.02;100.00;69366.97;5092963;28;20277;-79
2023/12/07 06:56:00;;;;;;;8.60;8.40;;;;;;;-141.02;100.00;69119.34;5092844;28;20200;-78
2023/12/07 06:58:27;;;;;;;9.13;8.87;;;;;;;-141.02;100.00;69119.34;5092882;28;20194;-78
2023/12/07 07:00:55;;;;;;;9.50;9.20;;;;;;;-141.02;100.00;69119.34;5092455;28;20254;-80
2023/12/07 07:03:23;;;;;;;8.77;8.57;;;;;;;-141.02;100.00;68376.50;5092353;28;20233;-80
2023/12/07 07:05:50;;;;;;;9.57;9.27;;;;;;;-141.02;100.00;68128.91;5092368;28;20190;-75
2023/12/07 07:08:17;;;;;;;9.40;9.10;;;;;;;-141.02;100.00;68128.91;5091167;28;20221;-75
2023/12/07 07:10:46;;;;;;;9.90;9.60;;;;;;;-141.02;100.00;68376.50;5092671;28;20194;-78
2023/12/07 07:13:14;;;;;;;9.80;9.50;;;;;;;-141.02;100.00;68376.50;5092245;28;20735;-75
2023/12/07 07:15:43;;;;;;;10.00;9.70;;;;;;;-141.02;100.00;68376.50;5092627;28;20199;-76
2023/12/07 07:18:11;;;;;;;10.00;9.70;;;;;;;-141.02;100.00;69119.34;5092098;28;20603;-76
2023/12/07 07:20:38;;;;;;;10.10;9.80;;;;;;;-141.02;100.00;68871.72;5092233;28;20288;-78
2023/12/07 07:23:07;;;;;;;10.40;10.10;;;;;;;-141.02;100.00;68871.72;5092347;28;20604;-76
2023/12/07 07:25:35;;;;;;;9.30;9.00;;;;;;;-141.02;100.00;68624.09;5092370;28;20293;-77
2023/12/07 07:28:03;;;;;;;9.80;9.50;;;;;;;-141.02;100.00;69614.66;5091926;28;20190;-77
2023/12/07 07:30:30;;;;;;;9.70;9.40;;;;;;;-141.02;100.00;70357.75;5091985;28;20193;-76
2023/12/07 07:32:57;;;;;;;9.40;9.10;;;;;;;-141.02;100.00;70853.25;5092398;28;20281;-78
2023/12/07 07:35:27;;;;;;;8.70;8.50;;;;;;;-141.02;100.00;69862.34;5092329;28;20240;-77
2023/12/07 07:37:54;;;;;;;8.87;8.67;;;;;;;-141.02;100.00;69366.97;5092030;28;20611;-78
2023/12/07 07:40:21;;;;;;;9.23;8.93;;;;;;;-141.02;100.00;67881.38;5092324;28;20282;-78
2023/12/07 07:42:47;;;;;;;9.30;9.00;;;;;;;-141.02;100.00;67386.28;5092213;28;20312;-78
2023/12/07 07:45:16;;;;;;;8.80;8.60;;;;;;;-141.02;100.00;68624.09;5092771;28;20285;-78
2023/12/07 07:47:43;;;;;;;8.90;8.70;;;;;;;-141.02;100.00;69366.97;5091980;28;20713;-77
2023/12/07 07:50:11;;;;;;;8.60;8.40;;;;;;;-141.02;100.00;69119.34;5091968;28;20202;-76
2023/12/07 07:52:40;;;;;;;8.30;8.10;;;;;;;-141.02;100.00;68871.72;5092146;28;20213;-76
2023/12/07 07:55:07;;;;;;;8.20;8.00;;;;;;;-141.02;100.00;69119.34;5092197;28;20209;-81
2023/12/07 07:57:34;;;;;;;8.03;7.83;;;;;;;-141.02;100.00;69366.97;5091878;28;20579;-80
2023/12/07 08:00:01;;;;;;;8.00;7.80;;;;;;;-141.02;100.00;69614.66;5092111;28;20391;-79
2023/12/07 08:02:28;;;;;;;8.07;7.87;;;;;;;-141.02;100.00;69614.66;5091901;28;20261;-80
2023/12/07 08:04:55;;;;;;;8.37;8.17;;;;;;;-141.02;100.00;69366.97;5092037;28;20574;-81
2023/12/07 08:07:22;;;;;;;8.40;8.20;;;;;;;-141.02;100.00;68871.72;5091760;28;20713;-81
2023/12/07 08:09:50;;;;;;;8.80;8.60;;;;;;;-141.02;100.00;68624.09;5091746;28;20635;-81
2023/12/07 08:12:17;;;;;;;9.20;8.90;;;;;;;-141.02;100.00;67881.38;5092046;28;20190;-80
2023/12/07 08:14:45;;;;;;;9.30;9.00;;;;;;;-141.02;100.00;67138.78;5092047;28;20285;-80
2023/12/07 08:17:12;;;;;;;9.40;9.10;;;;;;;-141.02;100.00;66148.94;5091976;28;20194;-78
2023/12/07 08:19:39;;;;;;;10.20;9.90;;;;;;;-141.02;100.00;66396.38;5091955;28;20204;-78
2023/12/07 08:22:06;;;;;;;10.13;9.83;;;;;;;-141.02;100.00;66396.38;5091587;28;20668;-76
2023/12/07 08:24:33;;;;;;;10.47;10.17;;;;;;;-141.02;100.00;66396.38;5091886;28;20225;-78
2023/12/07 08:27:03;;;;;;;10.73;10.43;;;;;;;-141.02;100.00;66148.94;5091659;28;20659;-76
2023/12/07 08:29:30;;;;;;;11.27;10.97;;;;;;;-141.02;100.00;65901.53;5091556;28;20522;-77
2023/12/07 08:31:57;;;;;;;11.10;10.80;;;;;;;-141.02;100.00;65654.13;5091591;28;20230;-78
2023/12/07 08:34:25;;;;;;;12.00;11.60;;;;;;;-141.02;100.00;65654.13;5091825;28;20193;-77
2023/12/07 08:36:52;;;;;;;12.00;11.60;;;;;;;-141.02;100.00;65654.13;5091822;28;20193;-77
2023/12/07 08:39:19;;;;;;;12.03;11.63;;;;;;;-141.02;100.00;64912.06;5091529;28;20208;-77
2023/12/07 08:41:46;;;;;;;12.70;12.30;;;;;;;-141.02;100.00;64664.72;5094723;28;20221;-77
2023/12/07 08:44:14;;;;;;;12.40;12.00;;;;;;;-141.02;100.00;64664.72;5095319;28;20315;-77
2023/12/07 08:46:43;;;;;;;12.70;12.30;;;;;;;-141.02;100.00;64170.13;5095230;28;20197;-76
2023/12/07 08:49:10;;;;;;;13.00;12.60;;;;;;;-141.02;100.00;64170.13;5095302;28;20198;-77
2023/12/07 08:51:37;;;;;;;13.50;13.10;;;;;;;-141.02;100.00;64170.13;5095213;28;20194;-77
2023/12/07 08:54:05;;;;;;;13.03;12.63;;;;;;;-141.02;100.00;63428.38;5095216;28;20227;-76
2023/12/07 08:56:32;;;;;;;13.90;13.40;;;;;;;-141.02;100.00;62933.94;5094766;28;20198;-77
2023/12/07 09:11:16;;;;;;;25.20;23.90;;;;;;;-141.02;100.00;60215.94;5068906;27;1792392;-78
2023/12/07 09:13:43;;;;;;;25.43;24.23;;;;;;;-141.02;100.00;60709.94;5109730;28;20284;-79
2023/12/07 09:16:10;;;;;;;24.20;23.00;;;;;;;-141.02;100.00;60957.00;5109987;28;20196;-79
2023/12/07 09:18:37;;;;;;;23.77;22.57;;;;;;;-141.02;100.00;61204.03;5109819;28;20220;-79
2023/12/07 09:21:04;;;;;;;24.40;23.20;;;;;;;-141.02;100.00;60957.00;5109842;28;20204;-78
2023/12/07 09:23:32;;;;;;;21.73;20.73;;;;;;;-141.02;100.00;60957.00;5109878;28;20292;-77
2023/12/07 09:25:59;;;;;;;23.10;22.00;;;;;;;-141.02;100.00;60957.00;5109559;28;20280;-77
2023/12/07 09:28:28;;;;;;;23.67;22.57;;;;;;;-141.02;100.00;60462.94;5109781;28;20204;-76
2023/12/07 09:30:54;;;;;;;21.97;20.97;;;;;;;-141.02;100.00;61451.13;5109754;28;20637;-77
2023/12/07 09:33:21;;;;;;;21.90;20.90;;;;;;;-141.02;100.00;61698.22;5109334;28;20665;-76
2023/12/07 09:35:49;;;;;;;22.23;21.17;;;;;;;-141.02;100.00;62192.44;5109662;28;20617;-77
2023/12/07 09:38:16;;;;;;;20.90;19.90;;;;;;;-141.02;100.00;61945.31;5109570;28;20199;-77
2023/12/07 09:40:43;;;;;;;21.70;20.70;;;;;;;-141.02;100.00;60709.94;5109407;28;20717;-77
2023/12/07 09:43:10;;;;;;;24.23;23.03;;;;;;;-141.02;100.00;61451.13;5109150;28;20642;-77
2023/12/07 09:45:39;;;;;;;23.50;22.30;;;;;;;-141.02;100.00;60957.00;5109331;28;20193;-77
2023/12/07 09:48:07;;;;;;;22.90;21.80;;;;;;;-141.02;100.00;60709.94;5109096;28;20268;-77
2023/12/07 09:50:35;;;;;;;24.63;23.37;;;;;;;-141.02;100.00;60709.94;5108997;28;20284;-78
2023/12/07 09:53:02;;;;;;;23.20;21.90;;;;;;;-141.02;100.00;60957.00;5108985;28;20193;-77
2023/12/07 09:55:30;;;;;;;22.17;20.97;;;;;;;-141.02;100.00;59721.97;5109020;28;20229;-78
2023/12/07 09:57:58;;;;;;;23.70;22.40;;;;;;;-141.02;100.00;59475.03;5109225;28;20193;-78
2023/12/07 10:00:25;;;;;;;23.50;22.20;;;;;;;-141.02;100.00;58734.28;5108820;28;20714;-78
2023/12/07 10:02:54;;;;;;;25.40;23.90;;;;;;;-141.02;100.00;58734.28;5108746;28;20193;-77
2023/12/07 10:05:21;;;;;;;24.13;22.83;;;;;;;-141.02;100.00;59228.09;5109100;28;20650;-78
2023/12/07 10:07:50;;;;;;;28.00;26.37;;;;;;;-141.02;100.00;58981.19;5108575;28;20250;-79
2023/12/07 10:10:18;;;;;;;26.47;24.87;;;;;;;-141.02;100.00;59228.09;5105680;28;20325;-79
2023/12/07 10:12:47;;;;;;;27.00;25.33;;;;;;;-141.02;100.00;58981.19;5095055;28;20656;-78
2023/12/07 10:15:15;;;;;;;27.93;26.23;;;;;;;-141.02;100.00;59228.09;5095006;28;20714;-78
2023/12/07 10:17:48;;;;;;;27.67;26.03;;;;;;;-141.02;100.00;58734.28;5095243;28;20204;-78
2023/12/07 10:20:17;;;;;;;30.80;29.10;;;;;;;-141.02;100.00;57993.72;5095103;28;20232;-77
2023/12/07 10:22:45;;;;;;;33.63;31.73;;;;;;;-141.02;100.00;58487.41;5094912;28;20206;-81
2023/12/07 10:25:13;;;;;;;30.70;29.00;;;;;;;-141.02;100.00;58981.19;5095074;28;20245;-76
2023/12/07 10:27:42;;;;;;;27.80;26.30;;;;;;;-141.02;100.00;58981.19;5095020;28;20221;-77
2023/12/07 10:30:13;;;;;;;24.77;23.37;;;;;;;-141.02;100.00;59228.09;5094982;28;20194;-77
2023/12/07 10:32:40;;;;;;;28.40;26.90;;;;;;;-141.02;100.00;58734.28;5094932;28;20346;-78
2023/12/07 10:35:09;;;;;;;27.97;26.47;;;;;;;-141.02;100.00;59228.09;5094591;28;20766;-80
2023/12/07 10:37:38;;;;;;;27.83;26.33;;;;;;;-141.02;100.00;59475.03;5094538;28;20198;-79
2023/12/07 10:40:07;;;;;;;23.60;22.20;;;;;;;-141.02;100.00;59721.97;5094443;28;20232;-78
2023/12/07 10:42:36;;;;;;;22.87;21.57;;;;;;;-141.02;100.00;60215.94;5094304;28;20671;-78
2023/12/07 10:45:09;;;;;;;23.90;22.60;;;;;;;-141.02;100.00;59721.97;5094455;28;20198;-78
2023/12/07 10:47:38;;;;;;;24.57;23.27;;;;;;;-141.02;100.00;59721.97;5094281;28;20193;-78
2023/12/07 10:50:10;;;;;;;25.37;23.97;;;;;;;-141.02;100.00;58981.19;5094627;28;20206;-77
2023/12/07 10:52:45;;;;;;;25.80;24.40;;;;;;;-141.02;100.00;59721.97;5094498;28;20289;-79
2023/12/07 10:55:18;;;;;;;26.43;25.03;;;;;;;-141.02;100.00;59968.94;5094230;28;20276;-78
2023/12/07 10:57:46;;;;;;;23.50;22.30;;;;;;;-141.02;100.00;59228.09;5094009;28;20190;-76
2023/12/07 11:00:14;;;;;;;23.43;22.23;;;;;;;-141.02;100.00;59228.09;5094024;28;20733;-77
2023/12/07 11:02:43;;;;;;;25.40;24.10;;;;;;;-141.02;100.00;59228.09;5094359;28;20198;-77
2023/12/07 11:05:10;;;;;;;24.30;23.10;;;;;;;-141.02;100.00;58734.28;5094324;28;20221;-78
2023/12/07 11:07:48;;;;;;;23.43;22.30;;;;;;;-141.02;100.00;58178.84;5094307;28;20190;-79
2023/12/07 11:10:23;;;;;;;23.70;22.50;;;;;;;-141.02;100.00;57910.78;5093831;28;20317;-78
2023/12/07 11:12:55;;;;;;;24.20;23.00;;;;;;;-141.02;100.00;57885.72;5094247;28;20192;-77
2023/12/07 11:15:22;;;;;;;23.13;22.03;;;;;;;-141.02;100.00;57311.13;5094151;28;20190;-77
2023/12/07 11:17:53;;;;;;;20.60;19.50;;;;;;;-141.02;100.00;57291.84;5093854;28;20198;-78